Time;durP1;ratioP1;P1;durP2;ratioP2;P2;SDS_P1;SDS_P2;PMS_P1;PMS_P2;Temp;Humidity;BMP_temperature;BMP_pressure;BME280_temperature;BME280_humidity;BME280_pressure;Samples;Min_cycle;Max_cycle;Signal;HPM_P1;HPM_P2
2021/03/11 00:00:50;;;;;;;109.40;43.60;;;;;;;-3.78;56.29;98860.50;507861;1101;104315;-40
2021/03/11 00:10:56;;;;;;;108.00;45.23;;;;;;;-3.88;56.40;98854.48;507803;1101;104344;-41
2021/03/11 00:21:00;;;;;;;123.57;47.27;;;;;;;-3.94;56.47;98852.44;507872;1102;104396;-41
2021/03/11 00:31:10;;;;;;;99.77;42.53;;;;;;;-4.09;57.04;98845.99;507908;1101;104326;-40
2021/03/11 00:41:15;;;;;;;109.00;45.80;;;;;;;-4.10;57.06;98857.27;507980;1101;104944;-40
2021/03/11 00:51:20;;;;;;;117.27;45.77;;;;;;;-4.27;57.61;98848.38;507862;1102;104791;-40
2021/03/11 01:11:50;;;;;;;123.57;50.37;;;;;;;-4.52;58.05;98828.17;508143;1101;104325;-40
2021/03/11 01:21:55;;;;;;;131.47;48.83;;;;;;;-4.58;58.57;98826.93;508132;1101;104874;-40
2021/03/11 01:32:00;;;;;;;124.73;48.50;;;;;;;-4.62;58.48;98807.50;507823;1101;104677;-41
2021/03/11 01:42:05;;;;;;;117.17;45.90;;;;;;;-4.66;58.87;98796.63;507947;1101;104383;-41
2021/03/11 01:52:10;;;;;;;97.80;40.80;;;;;;;-4.61;58.71;98777.34;508047;1101;104460;-40
2021/03/11 02:02:15;;;;;;;104.27;41.00;;;;;;;-4.59;59.16;98772.88;508080;1101;104673;-41
2021/03/11 02:12:21;;;;;;;85.60;35.47;;;;;;;-4.68;58.84;98751.26;507938;1101;104392;-40
2021/03/11 02:22:35;;;;;;;85.75;36.50;;;;;;;-4.69;59.32;98731.57;507852;1101;104386;-42
2021/03/11 02:32:42;;;;;;;87.03;34.53;;;;;;;-4.69;59.50;98722.06;507848;1102;104361;-42
2021/03/11 02:42:49;;;;;;;88.90;36.43;;;;;;;-4.64;59.35;98725.06;508582;1096;104427;-42
2021/03/11 02:52:55;;;;;;;99.07;41.17;;;;;;;-4.82;59.37;98700.83;507842;1102;104871;-41
2021/03/11 03:03:00;;;;;;;79.60;33.20;;;;;;;-4.90;59.46;98681.80;507867;1101;104347;-43
2021/03/11 03:13:12;;;;;;;75.10;32.55;;;;;;;-4.93;59.62;98669.17;508023;1101;104780;-40
2021/03/11 03:23:19;;;;;;;83.25;34.80;;;;;;;-4.80;59.71;98696.35;508040;1101;104338;-41
2021/03/11 03:33:24;;;;;;;87.60;36.70;;;;;;;-4.83;59.77;98696.62;508062;1102;104373;-39
2021/03/11 03:43:34;;;;;;;76.70;32.75;;;;;;;-5.03;60.04;98669.94;508212;1101;104669;-40
2021/03/11 03:53:41;;;;;;;79.07;32.00;;;;;;;-5.02;59.89;98668.17;507829;1100;104944;-42
2021/03/11 04:03:47;;;;;;;85.30;35.23;;;;;;;-5.18;59.98;98655.79;507798;1101;104332;-41
2021/03/11 04:13:53;;;;;;;64.83;28.50;;;;;;;-5.23;60.64;98626.17;507783;1102;104402;-42
2021/03/11 04:23:59;;;;;;;59.30;27.15;;;;;;;-5.12;60.53;98634.64;508043;1101;104370;-41
2021/03/11 04:34:07;;;;;;;61.45;26.90;;;;;;;-5.06;60.70;98626.38;508023;1102;104351;-39
2021/03/11 04:44:12;;;;;;;61.23;26.13;;;;;;;-4.98;60.76;98605.89;508295;1102;104319;-40
2021/03/11 04:54:19;;;;;;;44.93;21.70;;;;;;;-4.83;60.48;98572.81;508071;1100;104645;-40
2021/03/11 05:04:31;;;;;;;41.45;20.75;;;;;;;-4.62;60.28;98558.98;508142;1101;104338;-40
2021/03/11 05:14:36;;;;;;;35.70;15.50;;;;;;;-4.44;59.81;98558.18;507900;1101;104399;-40
2021/03/11 05:24:41;;;;;;;34.43;16.90;;;;;;;-4.35;59.82;98549.60;508163;1101;104737;-40
2021/03/11 05:34:55;;;;;;;43.05;20.75;;;;;;;-4.21;59.37;98532.08;508120;1101;104450;-40
2021/03/11 05:45:04;;;;;;;41.00;20.40;;;;;;;-4.03;59.24;98501.97;508006;1102;104310;-41
2021/03/11 05:55:09;;;;;;;33.03;16.20;;;;;;;-3.72;59.27;98495.62;508130;1101;104690;-41
2021/03/11 06:05:20;;;;;;;40.77;19.17;;;;;;;-3.35;59.18;98471.48;507981;1101;104397;-42
2021/03/11 06:15:30;;;;;;;35.40;16.80;;;;;;;-2.93;58.16;98455.41;507931;1101;104338;-39
2021/03/11 06:25:35;;;;;;;;;;;;;;;-2.63;57.40;98441.25;507961;1101;104631;-39
2021/03/11 06:35:42;;;;;;;44.70;20.23;;;;;;;-2.35;57.40;98437.59;508170;1102;104387;-42
2021/03/11 06:45:48;;;;;;;46.67;19.07;;;;;;;-2.04;56.43;98414.60;508011;1101;104335;-40
2021/03/11 06:55:54;;;;;;;42.17;20.83;;;;;;;-1.73;55.75;98408.88;508235;1102;104328;-40
2021/03/11 07:06:01;;;;;;;43.97;19.13;;;;;;;-1.30;55.09;98393.11;508085;1101;104335;-40
2021/03/11 07:16:11;;;;;;;49.27;20.47;;;;;;;-0.87;53.33;98393.80;507959;1101;104338;-40
2021/03/11 07:26:17;;;;;;;51.40;18.43;;;;;;;-0.60;53.00;98386.63;507925;1101;104341;-40
2021/03/11 07:36:23;;;;;;;44.47;18.03;;;;;;;-0.28;52.09;98386.56;507970;1101;104354;-42
2021/03/11 07:46:28;;;;;;;41.10;18.80;;;;;;;0.35;50.94;98361.45;507860;1102;104712;-40
2021/03/11 07:56:33;;;;;;;35.57;17.60;;;;;;;0.75;50.83;98344.79;508060;1102;104363;-41
2021/03/11 08:06:49;;;;;;;48.83;23.53;;;;;;;1.06;49.82;98305.64;508031;1101;104261;-41
2021/03/11 08:17:15;;;;;;;50.63;21.17;;;;;;;1.29;49.21;98308.19;508089;1101;104335;-40
2021/03/11 08:37:59;;;;;;;47.70;21.97;;;;;;;1.99;47.00;98266.00;507883;1102;104511;-40
2021/03/11 08:48:19;;;;;;;95.55;27.70;;;;;;;2.23;47.34;98247.39;507943;1101;104338;-40
2021/03/11 08:58:28;;;;;;;52.65;24.70;;;;;;;2.42;47.64;98223.30;507842;1101;104348;-43
2021/03/11 09:08:34;;;;;;;66.45;28.67;;;;;;;2.71;46.51;98192.80;507808;1101;104339;-42
2021/03/11 09:18:39;;;;;;;76.85;30.00;;;;;;;2.90;47.47;98171.25;507846;1100;104322;-42
2021/03/11 09:28:44;;;;;;;51.20;24.13;;;;;;;2.94;46.70;98148.16;508156;1101;104634;-40
2021/03/11 09:38:51;;;;;;;64.97;29.67;;;;;;;3.00;46.93;98114.23;508052;1102;104312;-43
2021/03/11 09:59:17;;;;;;;55.37;26.03;;;;;;;3.23;46.64;98085.20;507752;1101;104396;-41
2021/03/11 10:09:23;;;;;;;55.07;27.03;;;;;;;3.35;47.31;98062.73;508061;1101;104703;-41
2021/03/11 10:19:32;;;;;;;56.83;27.17;;;;;;;3.50;47.05;98054.70;508164;1101;104654;-40
2021/03/11 10:29:37;;;;;;;57.17;26.60;;;;;;;3.57;46.92;98052.13;507870;1102;104338;-41
2021/03/11 10:39:51;;;;;;;62.07;25.57;;;;;;;3.51;46.34;98032.80;507924;1101;104377;-40
2021/03/11 10:49:56;;;;;;;49.17;24.77;;;;;;;3.53;47.14;98030.78;507800;1102;105489;-40
2021/03/11 11:10:23;;;;;;;63.07;27.30;;;;;;;3.39;46.81;98009.06;507532;1101;104379;-42
2021/03/11 11:20:31;;;;;;;58.23;30.90;;;;;;;3.25;47.33;97983.10;507797;1102;104729;-41
2021/03/11 11:30:36;;;;;;;51.20;26.27;;;;;;;3.27;47.38;97978.48;507964;1102;104336;-40
2021/03/11 11:40:42;;;;;;;56.30;26.80;;;;;;;3.26;47.27;97972.45;507951;1101;104833;-40
2021/03/11 11:50:47;;;;;;;50.47;22.90;;;;;;;3.06;49.10;97972.41;507870;1101;104354;-41
2021/03/11 12:00:52;;;;;;;37.60;20.40;;;;;;;2.60;52.05;97961.84;508118;1101;104347;-40
2021/03/11 12:10:57;;;;;;;46.17;22.90;;;;;;;2.28;53.65;97945.03;507881;1102;104332;-41
2021/03/11 12:21:02;;;;;;;46.30;22.30;;;;;;;1.86;56.13;97914.70;507837;1101;104352;-40
2021/03/11 12:31:07;;;;;;;44.60;23.95;;;;;;;1.76;58.35;97878.56;507599;1102;104313;-40
2021/03/11 12:41:13;;;;;;;53.35;25.50;;;;;;;1.64;60.94;97837.58;508151;1102;104674;-40
2021/03/11 13:01:38;;;;;;;59.35;28.35;;;;;;;1.77;62.82;97794.16;508047;1101;104457;-43
2021/03/11 13:11:44;;;;;;;51.60;27.63;;;;;;;1.94;64.45;97729.47;507945;1101;104380;-42
2021/03/11 13:21:49;;;;;;;63.40;26.83;;;;;;;2.06;64.36;97711.42;507843;1102;104319;-39
2021/03/11 13:31:54;;;;;;;51.40;26.63;;;;;;;2.00;64.92;97730.48;508055;1101;104676;-41
2021/03/11 13:42:00;;;;;;;57.70;26.57;;;;;;;1.88;65.72;97711.98;507870;1102;104544;-41
2021/03/11 13:52:05;;;;;;;53.00;26.70;;;;;;;1.91;68.20;97669.09;507826;1101;104319;-44
2021/03/11 14:02:10;;;;;;;44.83;20.93;;;;;;;1.97;67.60;97658.67;508045;1101;104329;-41
2021/03/11 14:12:15;;;;;;;61.30;28.03;;;;;;;1.96;69.97;97625.78;507785;1102;104264;-41
2021/03/11 14:22:20;;;;;;;46.73;25.60;;;;;;;1.98;70.04;97596.91;508080;1101;104680;-40
2021/03/11 14:42:45;;;;;;;67.87;33.70;;;;;;;1.88;70.57;97599.09;508052;1101;104312;-40
2021/03/11 14:52:50;;;;;;;50.55;26.05;;;;;;;1.84;70.55;97607.31;507947;1101;104614;-41
2021/03/11 15:02:55;;;;;;;67.13;33.83;;;;;;;1.77;70.75;97579.64;508060;1101;104358;-40
2021/03/11 15:13:01;;;;;;;44.93;26.90;;;;;;;1.65;71.53;97571.59;507985;1101;104731;-40
2021/03/11 15:23:05;;;;;;;66.95;35.30;;;;;;;1.50;71.20;97557.97;507750;1100;104421;-40
2021/03/11 15:33:10;;;;;;;56.77;31.07;;;;;;;1.39;72.56;97542.91;507982;1102;104313;-40
2021/03/11 15:43:15;;;;;;;51.20;28.90;;;;;;;1.35;72.64;97533.88;508202;1102;104262;-40
2021/03/11 15:53:20;;;;;;;71.00;33.87;;;;;;;1.22;73.15;97517.25;507873;1101;104714;-41
2021/03/11 16:03:25;;;;;;;71.43;32.47;;;;;;;1.20;73.10;97474.98;507861;1101;104326;-39
2021/03/11 16:13:31;;;;;;;52.67;30.17;;;;;;;1.23;74.24;97417.30;507897;1102;104415;-43
2021/03/11 16:23:35;;;;;;;74.35;39.10;;;;;;;1.25;74.95;97442.34;508003;1101;104719;-40
2021/03/11 16:33:40;;;;;;;60.47;34.27;;;;;;;1.35;75.00;97404.46;508335;1102;104338;-42
2021/03/11 16:43:45;;;;;;;64.10;33.87;;;;;;;1.50;75.06;97423.30;507793;1101;104259;-41
2021/03/11 16:53:50;;;;;;;79.70;38.33;;;;;;;1.55;74.96;97427.91;508243;1101;104619;-41
2021/03/11 17:03:55;;;;;;;58.27;30.67;;;;;;;1.70;74.76;97409.46;508030;1101;104367;-40
2021/03/11 17:14:00;;;;;;;50.73;26.67;;;;;;;1.85;74.61;97397.78;508124;1102;104338;-42
2021/03/11 17:24:07;;;;;;;63.03;30.90;;;;;;;1.90;74.98;97384.16;507869;1101;104351;-40
2021/03/11 17:34:12;;;;;;;44.20;26.27;;;;;;;2.06;74.82;97362.03;508097;1101;104322;-41
2021/03/11 17:44:18;;;;;;;62.87;30.70;;;;;;;2.14;75.06;97364.43;507853;1100;104338;-40
2021/03/11 17:54:23;;;;;;;54.80;27.63;;;;;;;2.29;74.42;97348.50;508081;1101;104637;-41
2021/03/11 18:04:28;;;;;;;41.13;23.40;;;;;;;2.45;74.85;97320.13;508240;1102;104297;-43
2021/03/11 18:14:38;;;;;;;52.90;26.90;;;;;;;2.59;75.23;97307.78;508181;1101;105380;-40
2021/03/11 18:24:43;;;;;;;44.13;23.00;;;;;;;2.75;75.45;97262.91;508272;1101;104457;-40
2021/03/11 18:45:09;;;;;;;48.57;26.70;;;;;;;2.82;74.87;97244.56;507880;1101;104383;-40
2021/03/11 18:55:13;;;;;;;42.27;22.17;;;;;;;2.76;74.85;97221.94;508122;1101;104801;-41
2021/03/11 19:05:18;;;;;;;41.77;23.33;;;;;;;2.76;75.53;97221.94;507709;1102;104718;-40
2021/03/11 19:15:25;;;;;;;57.90;29.13;;;;;;;2.72;75.50;97223.38;508159;1101;104367;-42
2021/03/11 19:25:31;;;;;;;49.15;25.80;;;;;;;2.84;75.32;97226.08;507976;1101;104796;-43
2021/03/11 19:35:37;;;;;;;42.57;22.73;;;;;;;3.05;74.93;97241.35;507981;1101;104606;-41
2021/03/11 19:45:46;;;;;;;42.80;22.40;;;;;;;3.30;75.46;97218.59;508085;1101;104290;-40
2021/03/11 19:55:53;;;;;;;52.27;26.90;;;;;;;3.35;75.87;97189.22;508101;1101;104338;-42
2021/03/11 20:05:57;;;;;;;31.83;19.23;;;;;;;3.39;75.09;97192.99;507992;1101;104312;-40
2021/03/11 20:16:14;;;;;;;38.17;21.20;;;;;;;3.42;75.70;97176.88;507953;1101;104335;-41
2021/03/11 20:26:19;;;;;;;50.60;26.20;;;;;;;3.37;75.25;97174.13;507877;1101;104342;-40
2021/03/11 20:36:25;;;;;;;38.30;22.13;;;;;;;3.48;75.27;97190.87;508074;1102;105931;-41
2021/03/11 20:46:45;;;;;;;42.97;22.97;;;;;;;3.57;75.05;97192.19;507845;1101;104299;-41
2021/03/11 20:56:50;;;;;;;46.20;26.35;;;;;;;3.56;75.20;97172.30;507979;1101;104674;-42
2021/03/11 21:06:55;;;;;;;41.10;21.67;;;;;;;3.58;75.10;97167.64;507853;1100;104714;-40
2021/03/11 21:17:06;;;;;;;36.60;21.07;;;;;;;3.62;75.41;97159.13;508040;1101;104699;-41
2021/03/11 21:27:12;;;;;;;39.00;23.53;;;;;;;3.57;75.77;97138.09;507951;1101;105604;-41
2021/03/11 21:37:17;;;;;;;53.80;28.05;;;;;;;3.49;75.86;97153.27;507837;1102;104351;-40
2021/03/11 21:47:32;;;;;;;40.30;23.90;;;;;;;3.49;75.83;97174.97;508104;1101;104393;-41
2021/03/11 21:57:37;;;;;;;33.30;20.63;;;;;;;3.49;75.85;97161.11;507887;1101;104312;-40
2021/03/11 22:07:42;;;;;;;39.63;22.10;;;;;;;3.50;76.12;97141.80;507909;1102;104331;-43
2021/03/11 22:17:52;;;;;;;39.27;22.83;;;;;;;3.50;76.31;97128.73;507938;1101;105425;-41
2021/03/11 22:27:57;;;;;;;37.95;20.95;;;;;;;3.55;76.91;97134.08;508038;1101;104309;-41
2021/03/11 22:38:02;;;;;;;41.20;23.10;;;;;;;3.60;77.29;97068.90;508168;1101;104357;-40
2021/03/11 22:48:18;;;;;;;36.63;22.93;;;;;;;3.63;77.13;97090.16;507780;1101;104473;-40
2021/03/11 22:58:23;;;;;;;56.27;28.60;;;;;;;3.52;77.26;97090.90;508100;1101;104613;-40
2021/03/11 23:08:29;;;;;;;34.93;21.10;;;;;;;3.55;77.27;97076.59;508081;1101;104756;-40
2021/03/11 23:18:37;;;;;;;38.90;22.70;;;;;;;3.60;77.19;97085.38;508069;1102;104319;-40
2021/03/11 23:28:43;;;;;;;33.10;19.40;;;;;;;3.67;77.20;97121.87;508205;1102;104265;-42
2021/03/11 23:38:48;;;;;;;38.40;20.70;;;;;;;3.66;77.30;97089.70;507793;1101;104348;-41
2021/03/11 23:48:59;;;;;;;44.97;23.97;;;;;;;3.59;77.64;97120.37;507921;1101;104402;-41
2021/03/11 23:59:04;;;;;;;42.33;22.97;;;;;;;3.57;77.44;97132.87;507931;1101;104635;-40
